createdAt,value
2022-12-15T00:00:46.542Z,-5
2022-12-15T00:10:47.348Z,-5.2
2022-12-15T00:20:48.023Z,-5.4
2022-12-15T00:30:49.676Z,-5.3
2022-12-15T00:40:49.971Z,-4.9
2022-12-15T00:50:50.703Z,-4.9
2022-12-15T01:00:51.418Z,-4.9
2022-12-15T01:30:53.252Z,-4.9
2022-12-15T01:40:53.364Z,-4.8
2022-12-15T01:50:53.826Z,-4.7
2022-12-15T02:00:54.423Z,-4.8
2022-12-15T02:10:55.009Z,-4.9
2022-12-15T02:20:55.487Z,-4.9
2022-12-15T02:30:56.119Z,-4.8
2022-12-15T02:40:56.254Z,-4.8
2022-12-15T02:50:56.338Z,-4.8
2022-12-15T03:10:57.472Z,-4.8
2022-12-15T03:30:58.505Z,-5
2022-12-15T03:40:58.896Z,-4.9
2022-12-15T04:00:59.784Z,-4.9
2022-12-15T04:11:00.044Z,-4.9
2022-12-15T04:21:00.110Z,-4.9
2022-12-15T04:31:00.957Z,-4.9
2022-12-15T04:41:01.899Z,-5
2022-12-15T04:51:02.618Z,-5.1
2022-12-15T05:01:03.609Z,-5.2
2022-12-15T05:11:04.099Z,-5.1
2022-12-15T05:21:05.001Z,-5.1
2022-12-15T05:41:05.514Z,-5.1
2022-12-15T05:51:05.800Z,-5.2
2022-12-15T06:01:06.581Z,-5.2
2022-12-15T06:21:08.207Z,-5.3
2022-12-15T06:31:08.669Z,-5.3
2022-12-15T06:41:09.520Z,-5.2
2022-12-15T06:51:16.516Z,-5.2
2022-12-15T07:11:11.421Z,-5.1
2022-12-15T07:21:12.258Z,-5.1
2022-12-15T07:41:13.586Z,-5.3
2022-12-15T07:51:18.998Z,-5.3
2022-12-15T08:01:15.043Z,-5.4
2022-12-15T08:21:16.237Z,-5
2022-12-15T08:31:16.862Z,-4.9
2022-12-15T08:41:16.824Z,-4.8
2022-12-15T08:51:17.557Z,-4.6
2022-12-15T09:01:22.702Z,-4.3
2022-12-15T09:11:18.759Z,-4
2022-12-15T09:21:19.591Z,-3.9
2022-12-15T09:31:59.937Z,-3.7
2022-12-15T09:41:26.302Z,-3.4
2022-12-15T09:51:27.175Z,-3.2
2022-12-15T10:11:28.187Z,-2.6
2022-12-15T10:21:28.824Z,-2.3
2022-12-15T10:31:29.575Z,-2
2022-12-15T11:01:30.684Z,-1.2
2022-12-15T11:11:30.710Z,0.2
2022-12-15T11:21:31.636Z,0.7
2022-12-15T11:31:31.962Z,0.6
2022-12-15T11:41:32.103Z,0.6
2022-12-15T11:51:32.813Z,0.3
2022-12-15T12:01:33.527Z,0.1
2022-12-15T12:11:34.179Z,0
2022-12-15T12:21:34.989Z,0
2022-12-15T12:31:35.863Z,0
2022-12-15T12:41:36.414Z,0.2
2022-12-15T12:51:36.884Z,0.3
2022-12-15T13:01:38.113Z,0.3
2022-12-15T13:11:37.949Z,0.6
2022-12-15T13:21:38.873Z,0.5
2022-12-15T13:31:39.920Z,0.8
2022-12-15T13:41:49.871Z,0.5
2022-12-15T13:51:40.287Z,0.5
2022-12-15T14:01:41.157Z,0.5
2022-12-15T14:11:53.030Z,0.3
2022-12-15T14:21:42.705Z,0
2022-12-15T14:31:43.408Z,0
2022-12-15T14:41:43.680Z,-0.2
2022-12-15T14:51:44.231Z,-0.4
2022-12-15T15:01:44.378Z,-0.8
2022-12-15T15:21:45.175Z,-1.7
2022-12-15T15:41:45.985Z,-1.6
2022-12-15T15:51:46.352Z,-1.8
2022-12-15T16:01:47.303Z,-1.8
2022-12-15T16:11:48.101Z,-2.1
2022-12-15T16:21:49.054Z,-2.3
2022-12-15T16:31:49.817Z,-2
2022-12-15T16:41:49.815Z,-2.1
2022-12-15T16:51:50.216Z,-2.5
2022-12-15T17:01:50.769Z,-2.4
2022-12-15T17:11:50.997Z,-2
2022-12-15T17:21:51.218Z,-2.1
2022-12-15T17:31:51.430Z,-2.4
2022-12-15T17:42:00.804Z,-2.3
2022-12-15T17:51:53.178Z,-2.4
2022-12-15T18:01:54.001Z,-2.3
2022-12-15T18:11:54.413Z,-2.3
2022-12-15T18:21:55.303Z,-2.4
2022-12-15T18:31:56.407Z,-2.3
2022-12-15T18:41:56.619Z,-2.6
2022-12-15T18:51:57.378Z,-2.8
2022-12-15T19:01:58.220Z,-3.5
2022-12-15T19:11:58.176Z,-3.2
2022-12-15T19:21:58.855Z,-2.9
2022-12-15T19:31:59.836Z,-2.7
2022-12-15T19:52:01.106Z,-2.5
2022-12-15T20:02:01.378Z,-2.4
2022-12-15T20:12:01.357Z,-2.5
2022-12-15T20:22:02.075Z,-2.9
2022-12-15T20:32:03.122Z,-2.9
2022-12-15T20:42:03.532Z,-2.9
2022-12-15T20:52:04.285Z,-3.3
2022-12-15T21:02:04.605Z,-3.2
2022-12-15T21:12:09.094Z,-2.9
2022-12-15T21:22:05.533Z,-2.6
2022-12-15T21:32:06.433Z,-2.4
2022-12-15T21:42:06.562Z,-2.8
2022-12-15T21:52:07.513Z,-3.4
2022-12-15T22:12:09.057Z,-3.7
2022-12-15T22:52:11.322Z,-4.3
2022-12-15T23:02:11.549Z,-4.7
2022-12-15T23:22:12.672Z,-4.6
2022-12-15T23:32:13.057Z,-4.6
